createdAt,value
2018-11-22T00:02:19.003Z,26.50
2018-11-22T00:04:47.540Z,27.97
2018-11-22T00:07:16.093Z,23.60
2018-11-22T00:09:44.590Z,26.30
2018-11-22T00:12:13.476Z,24.13
2018-11-22T00:14:42.039Z,24.90
2018-11-22T00:17:10.534Z,26.60
2018-11-22T00:19:39.017Z,27.40
2018-11-22T00:22:08.201Z,25.87
2018-11-22T00:24:36.668Z,25.43
2018-11-22T00:27:05.296Z,25.33
2018-11-22T00:29:33.869Z,27.73
2018-11-22T00:32:02.311Z,25.50
2018-11-22T00:34:30.950Z,25.53
2018-11-22T00:36:59.400Z,26.40
2018-11-22T00:39:27.882Z,24.00
2018-11-22T00:41:56.484Z,27.30
2018-11-22T00:44:24.963Z,27.00
2018-11-22T00:46:53.785Z,26.00
2018-11-22T00:49:22.240Z,26.27
2018-11-22T00:51:50.678Z,26.13
2018-11-22T00:54:19.179Z,26.53
2018-11-22T00:56:47.684Z,25.17
2018-11-22T00:59:16.137Z,27.27
2018-11-22T01:01:44.572Z,25.30
2018-11-22T01:04:13.212Z,27.23
2018-11-22T01:06:41.663Z,25.80
2018-11-22T01:09:11.870Z,26.17
2018-11-22T01:11:40.485Z,27.33
2018-11-22T01:14:09.241Z,26.20
2018-11-22T01:16:37.752Z,25.90
2018-11-22T01:19:06.702Z,26.00
2018-11-22T01:21:35.500Z,28.33
2018-11-22T01:24:04.082Z,25.73
2018-11-22T01:26:32.842Z,26.10
2018-11-22T01:29:01.276Z,26.10
2018-11-22T01:31:29.825Z,27.13
2018-11-22T01:33:58.448Z,27.83
2018-11-22T01:36:26.955Z,29.70
2018-11-22T01:38:55.468Z,26.60
2018-11-22T01:41:23.991Z,25.47
2018-11-22T01:43:52.507Z,28.10
2018-11-22T01:46:20.963Z,25.43
2018-11-22T01:48:49.428Z,24.90
2018-11-22T01:51:17.921Z,24.40
2018-11-22T01:53:46.671Z,26.53
2018-11-22T01:56:15.120Z,28.07
2018-11-22T01:58:43.560Z,25.47
2018-11-22T02:01:12.095Z,27.50
2018-11-22T02:03:40.619Z,26.50
2018-11-22T02:06:09.416Z,25.10
2018-11-22T02:08:37.903Z,25.17
2018-11-22T02:11:06.580Z,28.93
2018-11-22T02:13:35.091Z,27.53
2018-11-22T02:16:03.525Z,26.40
2018-11-22T02:18:32.314Z,26.77
2018-11-22T02:21:00.775Z,27.77
2018-11-22T02:23:29.291Z,25.77
2018-11-22T02:25:57.758Z,26.23
2018-11-22T02:28:26.814Z,26.63
2018-11-22T02:30:55.327Z,27.13
2018-11-22T02:33:23.779Z,26.27
2018-11-22T02:35:52.511Z,25.57
2018-11-22T02:38:21.034Z,26.43
2018-11-22T02:40:49.507Z,26.13
2018-11-22T02:43:17.959Z,27.20
2018-11-22T02:45:46.477Z,25.73
2018-11-22T02:48:14.956Z,26.67
2018-11-22T02:50:43.435Z,25.40
2018-11-22T02:53:11.981Z,25.47
2018-11-22T02:55:40.432Z,24.87
2018-11-22T02:58:08.890Z,24.80
2018-11-22T03:00:41.965Z,26.50
2018-11-22T03:03:11.152Z,23.37
2018-11-22T03:05:39.689Z,25.60
2018-11-22T03:08:08.253Z,26.13
2018-11-22T03:10:36.746Z,26.97
2018-11-22T03:13:06.008Z,26.57
2018-11-22T03:15:34.454Z,25.70
2018-11-22T03:18:02.968Z,25.93
2018-11-22T03:20:31.438Z,27.70
2018-11-22T03:22:59.900Z,26.33
2018-11-22T03:25:28.554Z,26.57
2018-11-22T03:27:57.300Z,24.87
2018-11-22T03:30:26.112Z,27.00
2018-11-22T03:32:54.612Z,27.27
2018-11-22T03:35:24.498Z,25.27
2018-11-22T03:37:53.196Z,25.67
2018-11-22T03:40:25.594Z,25.40
2018-11-22T03:42:54.063Z,27.47
2018-11-22T03:45:23.124Z,27.53
2018-11-22T03:47:51.656Z,28.10
2018-11-22T03:50:21.428Z,27.40
2018-11-22T03:52:51.361Z,24.90
2018-11-22T03:55:19.942Z,26.23
2018-11-22T03:57:48.682Z,27.50
2018-11-22T04:00:18.617Z,27.47
2018-11-22T04:02:47.545Z,26.03
2018-11-22T04:05:17.467Z,26.10
2018-11-22T04:07:45.945Z,24.80
2018-11-22T04:10:16.132Z,26.97
2018-11-22T04:12:44.668Z,26.50
2018-11-22T04:15:13.753Z,26.50
2018-11-22T04:17:42.293Z,25.40
2018-11-22T04:20:13.604Z,27.50
2018-11-22T04:22:42.092Z,26.47
2018-11-22T04:25:11.972Z,27.03
2018-11-22T04:27:40.416Z,27.03
2018-11-22T04:30:11.814Z,26.17
2018-11-22T04:32:40.449Z,27.00
2018-11-22T04:35:10.078Z,26.67
2018-11-22T04:37:38.559Z,26.47
2018-11-22T04:40:09.459Z,27.40
2018-11-22T04:42:38.257Z,28.17
2018-11-22T04:45:07.037Z,26.00
2018-11-22T04:47:35.831Z,28.07
2018-11-22T04:50:05.120Z,27.30
2018-11-22T04:52:33.612Z,26.83
2018-11-22T04:55:02.436Z,26.47
2018-11-22T04:57:31.004Z,28.57
2018-11-22T04:59:59.456Z,27.07
2018-11-22T05:02:27.960Z,30.13
2018-11-22T05:04:56.606Z,26.90
2018-11-22T05:07:25.067Z,26.50
2018-11-22T05:09:53.774Z,29.50
2018-11-22T05:12:22.356Z,29.30
2018-11-22T05:14:50.818Z,30.33
2018-11-22T05:17:19.312Z,26.93
2018-11-22T05:19:47.770Z,30.53
2018-11-22T05:22:16.674Z,29.07
2018-11-22T05:24:45.146Z,28.07
2018-11-22T05:27:13.596Z,26.73
2018-11-22T05:29:42.236Z,30.20
2018-11-22T05:32:10.686Z,30.20
2018-11-22T05:34:39.171Z,29.40
2018-11-22T05:37:08.178Z,28.50
2018-11-22T05:39:36.736Z,31.83
2018-11-22T05:42:05.523Z,30.67
2018-11-22T05:44:34.124Z,31.20
2018-11-22T05:47:02.976Z,30.77
2018-11-22T05:49:31.737Z,31.50
2018-11-22T05:52:00.250Z,28.47
2018-11-22T05:54:28.711Z,28.70
2018-11-22T05:56:57.190Z,31.07
2018-11-22T05:59:25.662Z,28.70
2018-11-22T06:01:54.271Z,28.80
2018-11-22T06:04:22.740Z,30.23
2018-11-22T06:06:54.112Z,30.93
2018-11-22T06:09:22.600Z,29.83
2018-11-22T06:11:51.140Z,32.23
2018-11-22T06:14:19.672Z,31.33
2018-11-22T06:16:48.156Z,31.77
2018-11-22T06:19:16.665Z,30.20
2018-11-22T06:21:45.152Z,32.07
2018-11-22T06:24:13.838Z,30.33
2018-11-22T06:26:42.320Z,29.37
2018-11-22T06:29:10.856Z,32.53
2018-11-22T06:31:39.507Z,30.00
2018-11-22T06:34:07.948Z,31.33
2018-11-22T06:36:36.637Z,31.80
2018-11-22T06:39:07.568Z,29.37
2018-11-22T06:41:36.100Z,29.50
2018-11-22T06:44:04.618Z,29.13
2018-11-22T06:46:33.878Z,29.07
2018-11-22T06:49:02.366Z,32.10
2018-11-22T06:51:30.863Z,29.60
2018-11-22T06:53:59.354Z,29.00
2018-11-22T06:56:28.085Z,28.97
2018-11-22T06:58:56.578Z,32.03
2018-11-22T07:01:25.104Z,29.00
2018-11-22T07:03:53.898Z,28.97
2018-11-22T12:18:01.807Z,29.90
2018-11-22T12:20:30.430Z,28.00
2018-11-22T12:22:59.607Z,27.93
2018-11-22T12:25:29.151Z,30.07
2018-11-22T12:27:59.087Z,31.00
2018-11-22T12:30:29.004Z,26.33
2018-11-22T12:33:02.886Z,29.33
2018-11-22T12:35:36.787Z,27.80
2018-11-22T12:38:10.609Z,29.70
2018-11-22T12:40:39.232Z,31.67
2018-11-22T12:43:07.821Z,32.70
2018-11-22T12:45:36.414Z,30.20
2018-11-22T12:48:05.076Z,29.90
2018-11-22T12:50:33.830Z,29.70
2018-11-22T12:53:02.417Z,29.67
2018-11-22T12:55:31.008Z,28.30
2018-11-22T12:57:59.741Z,29.60
2018-11-22T13:00:28.329Z,30.20
2018-11-22T13:02:56.894Z,28.30
2018-11-22T13:05:25.511Z,28.17
2018-11-22T13:07:54.138Z,28.93
2018-11-22T13:10:22.918Z,29.03
2018-11-22T13:12:51.558Z,28.87
2018-11-22T13:15:21.216Z,31.43
2018-11-22T13:17:49.874Z,32.57
2018-11-22T13:20:19.942Z,29.83
2018-11-22T13:22:48.497Z,30.53
2018-11-22T13:25:19.631Z,27.73
2018-11-22T13:27:48.392Z,29.87
2018-11-22T13:30:23.747Z,31.17
2018-11-22T13:32:53.031Z,26.87
2018-11-22T13:35:21.819Z,30.37
2018-11-22T13:37:51.880Z,28.60
2018-11-22T13:40:20.520Z,27.10
2018-11-22T13:42:50.083Z,28.33
2018-11-22T13:45:21.234Z,27.30
2018-11-22T13:47:51.004Z,26.77
2018-11-22T13:50:23.100Z,29.97
2018-11-22T13:52:53.384Z,27.03
2018-11-22T13:55:21.950Z,27.20
2018-11-22T13:57:50.563Z,30.83
2018-11-22T14:00:21.367Z,28.00
2018-11-22T14:02:52.494Z,30.03
2018-11-22T14:05:21.177Z,30.10
2018-11-22T14:07:49.772Z,29.47
2018-11-22T14:10:19.271Z,28.60
2018-11-22T14:12:48.095Z,28.07
2018-11-22T14:15:21.107Z,28.97
2018-11-22T14:17:50.859Z,30.80
2018-11-22T14:20:24.082Z,28.60
2018-11-22T14:22:52.794Z,29.30
2018-11-22T14:25:21.377Z,29.30
2018-11-22T14:27:50.705Z,29.97
2018-11-22T14:30:20.656Z,29.13
2018-11-22T14:32:50.338Z,28.03
2018-11-22T14:35:19.945Z,28.20
2018-11-22T14:37:48.541Z,29.23
2018-11-22T14:40:20.614Z,32.10
2018-11-22T14:42:50.139Z,29.20
2018-11-22T14:45:18.706Z,29.40
2018-11-22T14:47:48.407Z,29.90
2018-11-22T14:50:21.549Z,31.90
2018-11-22T14:52:58.505Z,31.53
2018-11-22T14:55:27.063Z,27.43
2018-11-22T14:57:55.724Z,30.80
2018-11-22T15:00:24.334Z,29.30
2018-11-22T15:02:53.048Z,28.70
2018-11-22T15:05:21.630Z,28.90
2018-11-22T15:07:50.214Z,29.97
2018-11-22T15:10:18.897Z,27.87
2018-11-22T15:12:48.164Z,30.40
2018-11-22T15:15:21.679Z,29.70
2018-11-22T15:17:50.250Z,29.20
2018-11-22T15:20:19.838Z,29.60
2018-11-22T15:22:49.170Z,29.47
2018-11-22T15:25:25.455Z,29.10
2018-11-22T15:27:54.090Z,29.77
2018-11-22T15:30:24.024Z,29.70
2018-11-22T15:32:52.779Z,31.30
2018-11-22T15:35:22.617Z,30.40
2018-11-22T15:37:51.498Z,32.10
2018-11-22T15:40:21.344Z,28.13
2018-11-22T15:42:51.482Z,30.53
2018-11-22T15:45:21.464Z,29.93
2018-11-22T15:47:50.076Z,29.83
2018-11-22T15:50:20.214Z,31.53
2018-11-22T15:52:48.769Z,30.60
2018-11-22T15:55:21.082Z,31.30
2018-11-22T15:57:47.961Z,30.53
2018-11-22T16:00:19.609Z,30.00
2018-11-22T16:02:48.929Z,30.87
2018-11-22T16:05:18.028Z,30.20
2018-11-22T16:07:46.838Z,30.07
2018-11-22T16:10:26.078Z,34.07
2018-11-22T16:12:48.681Z,30.37
2018-11-22T16:15:23.513Z,30.70
2018-11-22T16:17:52.103Z,30.87
2018-11-22T16:20:20.890Z,29.53
2018-11-22T16:22:49.699Z,30.67
2018-11-22T16:25:18.572Z,32.93
2018-11-22T16:27:47.204Z,27.70
2018-11-22T16:30:18.134Z,29.90
2018-11-22T16:32:47.048Z,31.20
2018-11-22T16:35:16.820Z,28.07
2018-11-22T16:37:45.821Z,29.80
2018-11-22T16:40:16.751Z,30.00
2018-11-22T16:42:46.693Z,29.00
2018-11-22T16:45:22.431Z,30.93
2018-11-22T16:47:51.178Z,30.17
2018-11-22T16:50:21.202Z,29.40
2018-11-22T16:52:49.998Z,33.17
2018-11-22T16:55:19.198Z,31.73
2018-11-22T16:57:48.898Z,28.20
2018-11-22T17:00:20.048Z,31.03
2018-11-22T17:02:49.775Z,30.03
2018-11-22T17:05:21.430Z,27.73
2018-11-22T17:07:50.203Z,32.30
2018-11-22T17:10:21.070Z,30.30
2018-11-22T17:12:50.677Z,29.33
2018-11-22T17:15:20.552Z,31.60
2018-11-22T17:17:49.543Z,30.07
2018-11-22T17:20:18.974Z,34.33
2018-11-22T17:22:48.266Z,34.77
2018-11-22T17:25:21.145Z,33.60
2018-11-22T17:27:51.525Z,34.00
2018-11-22T17:30:25.478Z,31.00
2018-11-22T17:32:53.994Z,28.30
2018-11-22T17:35:23.969Z,30.07
2018-11-22T17:37:53.247Z,29.67
2018-11-22T17:40:23.494Z,34.60
2018-11-22T17:42:52.096Z,32.27
2018-11-22T17:45:24.088Z,33.60
2018-11-22T17:47:53.393Z,32.23
2018-11-22T17:50:23.343Z,31.43
2018-11-22T17:52:51.947Z,31.27
2018-11-22T17:55:22.762Z,29.17
2018-11-22T17:57:51.479Z,30.07
2018-11-22T18:00:22.675Z,30.73
2018-11-22T18:02:52.429Z,29.43
2018-11-22T18:05:23.538Z,29.63
2018-11-22T18:07:49.541Z,29.77
2018-11-22T18:10:19.633Z,32.80
2018-11-22T18:12:48.955Z,29.00
2018-11-22T18:15:18.639Z,27.57
2018-11-22T18:17:47.340Z,31.20
2018-11-22T18:20:21.470Z,28.07
2018-11-22T18:22:51.051Z,28.63
2018-11-22T18:25:20.985Z,31.30
2018-11-22T18:27:49.603Z,30.00
2018-11-22T18:30:21.596Z,31.23
2018-11-22T18:32:51.595Z,29.70
2018-11-22T18:35:20.116Z,29.50
2018-11-22T18:37:48.985Z,28.23
2018-11-22T18:40:19.689Z,27.37
2018-11-22T18:42:49.620Z,27.10
2018-11-22T18:45:23.397Z,28.83
2018-11-22T18:47:52.046Z,29.77
2018-11-22T18:50:27.799Z,27.70
2018-11-22T18:52:56.431Z,28.57
2018-11-22T18:55:25.289Z,28.23
2018-11-22T18:57:53.784Z,27.90
2018-11-22T19:00:24.843Z,28.57
2018-11-22T19:02:54.477Z,28.57
2018-11-22T19:05:22.999Z,30.40
2018-11-22T19:07:52.289Z,29.27
2018-11-22T19:10:22.419Z,28.57
2018-11-22T19:12:52.215Z,28.33
2018-11-22T19:15:22.150Z,26.93
2018-11-22T19:17:51.591Z,28.73
2018-11-22T19:20:22.895Z,27.60
2018-11-22T19:22:52.108Z,26.77
2018-11-22T19:25:21.266Z,28.03
2018-11-22T19:27:50.353Z,26.83
2018-11-22T19:30:27.530Z,27.57
2018-11-22T19:32:57.422Z,30.43
2018-11-22T19:35:27.484Z,26.90
2018-11-22T19:37:59.052Z,27.57
2018-11-22T19:40:30.052Z,25.93
2018-11-22T19:42:59.983Z,29.43
2018-11-22T19:45:30.120Z,26.17
2018-11-22T19:47:58.658Z,26.50
2018-11-22T19:50:28.238Z,31.30
2018-11-22T19:52:57.486Z,28.80
2018-11-22T19:55:27.555Z,29.00
2018-11-22T19:57:57.675Z,28.03
2018-11-22T20:00:26.965Z,27.47
2018-11-22T20:02:56.625Z,26.90
2018-11-22T20:05:26.217Z,26.90
2018-11-22T20:07:56.406Z,28.13
2018-11-22T20:10:28.540Z,25.47
2018-11-22T20:12:57.053Z,27.43
2018-11-22T20:15:25.634Z,27.63
2018-11-22T20:17:55.145Z,25.70
2018-11-22T20:20:24.553Z,27.90
2018-11-22T20:22:53.443Z,28.03
2018-11-22T20:25:21.971Z,26.93
2018-11-22T20:27:51.557Z,26.57
2018-11-22T20:30:21.615Z,28.73
2018-11-22T20:32:50.266Z,26.57
2018-11-22T20:35:19.724Z,25.97
2018-11-22T20:37:48.990Z,29.17
2018-11-22T20:40:18.868Z,25.47
2018-11-22T20:42:47.459Z,26.70
2018-11-22T20:45:18.506Z,25.80
2018-11-22T20:47:48.150Z,26.83
2018-11-22T20:50:18.241Z,25.97
2018-11-22T20:52:46.871Z,27.50
2018-11-22T20:55:24.167Z,27.80
2018-11-22T20:57:53.933Z,26.37
2018-11-22T21:00:24.459Z,26.33
2018-11-22T21:02:53.066Z,26.27
2018-11-22T21:05:22.468Z,26.73
2018-11-22T21:07:51.091Z,24.63
2018-11-22T21:10:21.107Z,27.23
2018-11-22T21:12:50.179Z,26.23
2018-11-22T21:15:20.919Z,24.73
2018-11-22T21:17:50.818Z,26.63
2018-11-22T21:20:20.909Z,25.80
2018-11-22T21:22:49.547Z,26.27
2018-11-22T21:25:19.274Z,27.70
2018-11-22T21:27:50.753Z,23.73
2018-11-22T21:30:38.328Z,25.60
2018-11-22T21:33:06.901Z,25.10
2018-11-22T21:35:35.935Z,23.80
2018-11-22T21:38:05.391Z,24.30
2018-11-22T21:40:34.479Z,25.53
2018-11-22T21:43:03.263Z,27.13
2018-11-22T21:45:32.722Z,25.90
2018-11-22T21:48:01.300Z,23.80
2018-11-22T21:50:30.383Z,23.30
2018-11-22T21:52:58.929Z,26.30
2018-11-22T21:55:28.656Z,25.30
2018-11-22T21:57:58.510Z,27.70
2018-11-22T22:00:29.935Z,26.10
2018-11-22T22:03:00.939Z,25.80
2018-11-22T22:05:29.466Z,25.50
2018-11-22T22:07:58.068Z,26.13
2018-11-22T22:10:26.843Z,26.27
2018-11-22T22:12:55.402Z,25.67
2018-11-22T22:15:25.086Z,26.40
2018-11-22T22:17:53.719Z,24.70
2018-11-22T22:20:25.569Z,22.57
2018-11-22T22:22:54.218Z,26.10
2018-11-22T22:25:23.881Z,26.43
2018-11-22T22:27:53.073Z,25.43
2018-11-22T22:30:22.875Z,25.73
2018-11-22T22:32:52.639Z,24.80
2018-11-22T22:35:21.712Z,25.90
2018-11-22T22:37:50.338Z,25.63
2018-11-22T22:40:20.287Z,23.90
2018-11-22T22:42:49.789Z,24.67
2018-11-22T22:45:19.379Z,25.03
2018-11-22T22:47:48.697Z,24.57
2018-11-22T22:50:24.831Z,23.50
2018-11-22T22:52:56.024Z,26.10
2018-11-22T22:55:25.088Z,24.53
2018-11-22T22:57:53.663Z,25.83
2018-11-22T23:00:28.628Z,24.17
2018-11-22T23:03:02.527Z,24.80
2018-11-22T23:05:32.057Z,24.97
2018-11-22T23:08:00.696Z,23.30
2018-11-22T23:10:29.200Z,24.60
2018-11-22T23:12:58.493Z,24.00
2018-11-22T23:15:28.016Z,24.87
2018-11-22T23:17:56.558Z,25.97
2018-11-22T23:20:40.431Z,23.13
2018-11-22T23:23:09.210Z,24.70
2018-11-22T23:25:37.813Z,25.20
2018-11-22T23:28:06.510Z,26.07
2018-11-22T23:30:35.842Z,23.93
2018-11-22T23:33:05.605Z,23.87
2018-11-22T23:35:34.108Z,24.23
2018-11-22T23:38:02.890Z,23.80
2018-11-22T23:40:32.287Z,25.57
2018-11-22T23:43:00.779Z,22.17
2018-11-22T23:45:30.466Z,22.67
2018-11-22T23:47:59.059Z,25.93
2018-11-22T23:50:29.193Z,25.30
2018-11-22T23:52:58.470Z,25.90
2018-11-22T23:55:26.998Z,24.80
2018-11-22T23:57:55.584Z,22.77
